CheckWX is a tool to help pilots better visualize weather data.  It is not intended as a substitute for an official pre-flight weather briefing.

04:33:25 UTC

KDSV METAR
Dansville Municipal Airport
Dansville, New York, USA
Current

39 mins ago

KDSV 290354Z AUTO 00000KT 9SM OVC043 M05/M08 A2979 RMK AO2 SNE52 SLP106 P0000 T10501083
Observed
Feb-29 @ 03:54 UTC
Visibility
9 SM
Flight Rules
VFR
Cloud Levels
  • Overcast at 4,300' AGL
Temperature
-5°C / 23°F
Dewpoint
-8°C / 18°F
Humidity
80%
Altimeter
29.79" Hg
Pressure
1008.82 hPa
Current Rain
0.01"
Previous

44 mins ago

KDSV 290349Z AUTO 20004KT 6SM -SN OVC039 M05/M08 A2979 RMK AO2 P0000
Observed
Feb-29 @ 03:49 UTC
Wind
  • 200° at 4 KTS
Visibility
6 SM
Flight Rules
VFR
Conditions
Light Snow
Cloud Levels
  • Overcast at 3,900' AGL
Temperature
-5°C / 23°F
Dewpoint
-8°C / 18°F
Humidity
80%
Altimeter
29.79" Hg
Pressure
1008.82 hPa
Current Rain
0.01"
Previous

1 hour ago

KDSV 290328Z AUTO 17003KT 3SM -SN BR OVC027 M05/M07 A2980 RMK AO2 P0000 T10501072
Observed
Feb-29 @ 03:28 UTC
Wind
  • 170° at 3 KTS
Visibility
3 SM
Flight Rules
MVFR
Conditions
Light Snow, Mist
Cloud Levels
  • Overcast at 2,700' AGL
Temperature
-5°C / 23°F
Dewpoint
-7°C / 19°F
Humidity
86%
Altimeter
29.8" Hg
Pressure
1009.12 hPa
Current Rain
0.01"